createdAt,value
2023-05-18T00:04:05.417Z,21.40
2023-05-18T00:09:05.399Z,21.10
2023-05-18T00:14:05.333Z,19.50
2023-05-18T00:19:05.331Z,17.30
2023-05-18T00:24:05.166Z,17.90
2023-05-18T00:29:05.154Z,19.70
2023-05-18T00:34:05.027Z,19.60
2023-05-18T00:39:05.110Z,19.50
2023-05-18T00:44:05.259Z,14.90
2023-05-18T00:49:04.973Z,14.90
2023-05-18T00:54:04.943Z,15.40
2023-05-18T00:59:04.859Z,17.10
2023-05-18T01:04:04.948Z,15.70
2023-05-18T01:09:04.697Z,16.30
2023-05-18T01:14:04.652Z,16.50
2023-05-18T01:19:04.618Z,18.60
2023-05-18T01:24:04.632Z,18.90
2023-05-18T01:29:08.017Z,16.30
2023-05-18T01:34:04.430Z,19.90
2023-05-18T01:39:04.450Z,18.30
2023-05-18T01:44:04.432Z,23.40
2023-05-18T01:49:04.255Z,19.40
2023-05-18T01:54:04.158Z,19.30
2023-05-18T01:59:04.156Z,20.30
2023-05-18T02:04:04.300Z,19.00
2023-05-18T02:09:03.990Z,17.60
2023-05-18T02:14:04.133Z,16.90
2023-05-18T02:19:04.225Z,21.00
2023-05-18T02:24:04.008Z,20.30
2023-05-18T02:29:03.823Z,16.80
2023-05-18T02:34:03.804Z,19.30
2023-05-18T02:39:03.692Z,18.60
2023-05-18T02:44:03.681Z,24.30
2023-05-18T02:49:03.645Z,20.20
2023-05-18T02:54:03.586Z,20.70
2023-05-18T02:59:03.897Z,18.30
2023-05-18T03:04:03.624Z,19.10
2023-05-18T03:09:03.525Z,21.50
2023-05-18T03:14:03.319Z,19.90
2023-05-18T03:19:03.464Z,22.60
2023-05-18T03:24:03.353Z,18.50
2023-05-18T03:29:03.318Z,19.60
2023-05-18T03:34:03.137Z,21.90
2023-05-18T03:39:03.090Z,20.80
2023-05-18T03:44:03.050Z,19.30
2023-05-18T03:49:03.009Z,19.60
2023-05-18T03:54:02.977Z,21.00
2023-05-18T03:59:02.842Z,24.20
2023-05-18T04:04:02.864Z,19.20
2023-05-18T04:09:03.876Z,23.20
2023-05-18T04:14:03.772Z,17.70
2023-05-18T04:19:03.899Z,17.70
2023-05-18T04:24:02.788Z,19.90
2023-05-18T04:29:02.552Z,21.40
2023-05-18T04:34:02.617Z,21.40
2023-05-18T04:39:02.521Z,20.40
2023-05-18T04:44:02.549Z,16.10
2023-05-18T04:49:02.326Z,16.60
2023-05-18T04:54:03.413Z,14.00
2023-05-18T04:59:02.468Z,23.20
2023-05-18T05:04:02.322Z,23.40
2023-05-18T05:09:02.200Z,15.70
2023-05-18T05:14:02.042Z,19.80
2023-05-18T05:19:01.992Z,18.90
2023-05-18T05:24:01.985Z,21.60
2023-05-18T05:29:02.054Z,15.90
2023-05-18T05:34:01.821Z,21.40
2023-05-18T05:39:01.896Z,20.30
2023-05-18T05:44:01.747Z,20.70
2023-05-18T05:49:01.628Z,16.00
2023-05-18T05:54:01.697Z,21.80
2023-05-18T05:59:01.687Z,16.90
2023-05-18T06:04:01.557Z,17.80
2023-05-18T06:09:01.418Z,17.20
2023-05-18T06:14:01.632Z,19.70
2023-05-18T06:19:01.450Z,20.20
2023-05-18T06:24:02.817Z,19.90
2023-05-18T06:29:01.227Z,19.20
2023-05-18T06:34:01.201Z,19.10
2023-05-18T06:39:01.165Z,16.20
2023-05-18T06:44:01.184Z,20.20
2023-05-18T06:49:01.110Z,18.00
2023-05-18T06:54:02.054Z,17.30
2023-05-18T06:59:00.926Z,17.30
2023-05-18T07:04:00.923Z,16.30
2023-05-18T07:09:00.781Z,15.00
2023-05-18T07:14:00.696Z,19.40
2023-05-18T07:19:00.688Z,15.60
2023-05-18T07:24:00.556Z,13.10
2023-05-18T07:29:00.524Z,12.40
2023-05-18T07:34:00.491Z,16.10
2023-05-18T07:39:00.428Z,15.80
2023-05-18T07:44:00.473Z,15.60
2023-05-18T07:49:03.830Z,15.90
2023-05-18T07:54:09.144Z,12.60
2023-05-18T07:59:00.238Z,13.50
2023-05-18T08:04:00.365Z,12.30
2023-05-18T08:09:00.254Z,14.70
2023-05-18T08:14:00.149Z,19.50
2023-05-18T08:19:01.168Z,14.50
2023-05-18T08:24:00.056Z,14.90
2023-05-18T08:29:00.003Z,13.80
2023-05-18T08:33:59.885Z,13.70
2023-05-18T08:38:59.984Z,13.60
2023-05-18T08:43:59.739Z,14.60
2023-05-18T08:48:59.685Z,14.10
2023-05-18T08:53:59.633Z,10.30
2023-05-18T08:58:59.558Z,15.20
2023-05-18T09:04:00.468Z,12.70
2023-05-18T09:08:59.452Z,11.40
2023-05-18T09:13:59.391Z,14.10
2023-05-18T09:18:59.425Z,11.10
2023-05-18T09:23:59.431Z,13.40
2023-05-18T09:28:59.324Z,14.90
2023-05-18T09:33:59.361Z,13.10
2023-05-18T09:38:59.220Z,11.30
2023-05-18T09:43:59.170Z,10.60
2023-05-18T09:48:59.094Z,10.80
2023-05-18T09:53:59.010Z,12.60
2023-05-18T09:58:58.945Z,11.60
2023-05-18T10:03:58.941Z,13.30
2023-05-18T10:08:58.869Z,11.60
2023-05-18T10:13:58.903Z,12.60
2023-05-18T10:18:58.871Z,10.70
2023-05-18T10:23:58.703Z,12.20
2023-05-18T10:28:58.728Z,14.50
2023-05-18T10:33:58.690Z,11.70
2023-05-18T10:38:58.553Z,14.10
2023-05-18T10:43:58.518Z,12.40
2023-05-18T10:48:58.463Z,11.30
2023-05-18T10:53:58.396Z,12.70
2023-05-18T10:58:58.363Z,11.60
2023-05-18T11:03:58.311Z,10.50
2023-05-18T11:08:58.285Z,11.80
2023-05-18T11:13:58.213Z,9.90
2023-05-18T11:18:58.171Z,11.20
2023-05-18T11:23:58.184Z,12.60
2023-05-18T11:28:58.095Z,9.90
2023-05-18T11:33:58.041Z,11.20
2023-05-18T11:38:58.093Z,10.30
2023-05-18T11:43:57.926Z,10.70
2023-05-18T11:48:57.924Z,15.50
2023-05-18T11:53:57.835Z,13.00
2023-05-18T11:58:57.780Z,12.10
2023-05-18T12:03:57.889Z,9.80
2023-05-18T12:08:57.658Z,10.80
2023-05-18T12:13:57.604Z,11.60
2023-05-18T12:18:57.597Z,11.20
2023-05-18T12:23:57.514Z,8.20
2023-05-18T12:28:57.569Z,9.50
2023-05-18T12:33:59.235Z,11.10
2023-05-18T12:38:57.497Z,11.40
2023-05-18T12:43:57.355Z,17.20
2023-05-18T12:48:57.295Z,11.80
2023-05-18T12:53:57.296Z,16.80
2023-05-18T12:58:57.239Z,12.70
2023-05-18T13:03:57.264Z,13.20
2023-05-18T13:08:57.072Z,14.50
2023-05-18T13:13:57.126Z,10.80
2023-05-18T13:18:57.073Z,15.00
2023-05-18T13:23:57.047Z,8.40
2023-05-18T13:28:57.991Z,8.70
2023-05-18T13:33:56.832Z,10.50
2023-05-18T13:38:56.789Z,10.50
2023-05-18T13:43:56.742Z,8.40
2023-05-18T13:48:56.702Z,9.40
2023-05-18T13:53:56.638Z,17.70
2023-05-18T13:58:56.604Z,11.10
2023-05-18T14:03:56.535Z,14.00
2023-05-18T14:08:56.576Z,12.90
2023-05-18T14:13:56.538Z,12.00
2023-05-18T14:18:56.472Z,12.90
2023-05-18T14:24:03.432Z,10.80
2023-05-18T14:28:56.276Z,10.80
2023-05-18T14:33:56.330Z,13.40
2023-05-18T14:38:56.216Z,15.90
2023-05-18T14:43:57.151Z,11.90
2023-05-18T14:48:56.152Z,15.00
2023-05-18T14:53:56.131Z,8.00
2023-05-18T14:58:55.982Z,11.40
2023-05-18T15:03:56.069Z,10.60
2023-05-18T15:08:55.906Z,13.10
2023-05-18T15:13:55.841Z,9.80
2023-05-18T15:18:55.783Z,11.00
2023-05-18T15:23:55.736Z,11.80
2023-05-18T15:28:55.672Z,14.80
2023-05-18T15:33:55.646Z,9.90
2023-05-18T15:38:55.642Z,8.90
2023-05-18T15:43:55.512Z,8.50
2023-05-18T15:48:55.456Z,13.00
2023-05-18T15:53:55.438Z,10.80
2023-05-18T15:58:55.556Z,9.50
2023-05-18T16:03:55.512Z,10.50
2023-05-18T16:08:55.428Z,9.20
2023-05-18T16:13:56.771Z,7.70
2023-05-18T16:18:55.184Z,12.30
2023-05-18T16:23:55.148Z,9.20
2023-05-18T16:28:55.064Z,8.90
2023-05-18T16:33:55.068Z,15.30
2023-05-18T16:38:55.951Z,11.80
2023-05-18T16:43:55.035Z,8.70
2023-05-18T16:48:54.972Z,10.10
2023-05-18T16:53:54.915Z,15.10
2023-05-18T16:58:54.741Z,8.90
2023-05-18T17:03:54.793Z,9.00
2023-05-18T17:08:54.652Z,13.40
2023-05-18T17:13:54.690Z,14.00
2023-05-18T17:18:54.690Z,14.10
2023-05-18T17:23:54.570Z,10.70
2023-05-18T17:28:54.483Z,10.20
2023-05-18T17:33:54.511Z,16.20
2023-05-18T17:38:54.350Z,9.90
2023-05-18T17:43:54.290Z,10.00
2023-05-18T17:48:54.211Z,12.30
2023-05-18T17:53:54.232Z,8.10
2023-05-18T17:58:54.131Z,12.70
2023-05-18T18:03:54.133Z,12.20
2023-05-18T18:08:54.150Z,12.10
2023-05-18T18:13:54.030Z,11.50
2023-05-18T18:18:53.992Z,13.60
2023-05-18T18:23:53.802Z,11.50
2023-05-18T18:28:53.768Z,13.90
2023-05-18T18:33:53.752Z,16.40
2023-05-18T18:38:53.727Z,9.60
2023-05-18T18:43:53.614Z,13.40
2023-05-18T18:48:53.516Z,14.70
2023-05-18T18:53:53.483Z,10.10
2023-05-18T18:58:53.431Z,12.90
2023-05-18T19:03:53.336Z,11.10
2023-05-18T19:09:00.190Z,14.40
2023-05-18T19:13:53.301Z,15.50
2023-05-18T19:18:53.251Z,11.60
2023-05-18T19:23:53.215Z,9.60
2023-05-18T19:28:53.120Z,8.80
2023-05-18T19:33:53.033Z,10.80
2023-05-18T19:38:53.076Z,8.40
2023-05-18T19:43:52.946Z,7.20
2023-05-18T19:48:55.606Z,11.20
2023-05-18T19:53:52.924Z,13.10
2023-05-18T19:58:52.824Z,13.00
2023-05-18T20:03:52.920Z,9.80
2023-05-18T20:08:52.728Z,11.00
2023-05-18T20:13:52.594Z,12.30
2023-05-18T20:18:52.575Z,13.90
2023-05-18T20:23:52.477Z,12.60
2023-05-18T20:28:52.491Z,13.20
2023-05-18T20:33:52.417Z,10.20
2023-05-18T20:38:52.315Z,14.90
2023-05-18T20:43:55.664Z,18.60
2023-05-18T20:48:52.276Z,11.70
2023-05-18T20:53:52.171Z,8.90
2023-05-18T20:58:52.086Z,9.60
2023-05-18T21:03:52.133Z,10.00
2023-05-18T21:08:51.989Z,12.00
2023-05-18T21:13:51.930Z,7.80
2023-05-18T21:18:51.899Z,12.30
2023-05-18T21:23:51.931Z,11.70
2023-05-18T21:28:51.884Z,16.70
2023-05-18T21:33:51.833Z,13.70
2023-05-18T21:38:51.691Z,12.00
2023-05-18T21:43:51.632Z,18.20
2023-05-18T21:48:51.611Z,14.50
2023-05-18T21:53:51.566Z,13.60
2023-05-18T21:58:51.533Z,9.70
2023-05-18T22:03:51.510Z,14.10
2023-05-18T22:08:51.317Z,8.80
2023-05-18T22:13:51.357Z,9.00
2023-05-18T22:18:51.259Z,11.50
2023-05-18T22:23:51.219Z,9.70
2023-05-18T22:28:51.192Z,11.30
2023-05-18T22:33:53.708Z,8.90
2023-05-18T22:38:51.085Z,10.40
2023-05-18T22:43:50.980Z,9.40
2023-05-18T22:48:51.026Z,8.50
2023-05-18T22:53:50.985Z,11.40
2023-05-18T22:58:50.787Z,16.70
2023-05-18T23:03:50.767Z,14.40
2023-05-18T23:08:50.784Z,11.50
2023-05-18T23:13:50.722Z,16.40
2023-05-18T23:18:50.708Z,15.20
2023-05-18T23:23:50.629Z,10.90
2023-05-18T23:28:50.586Z,13.60
2023-05-18T23:33:50.469Z,12.20
2023-05-18T23:38:50.390Z,15.30
2023-05-18T23:43:50.346Z,14.70
2023-05-18T23:48:50.299Z,13.10
2023-05-18T23:53:50.273Z,13.70
2023-05-18T23:58:50.198Z,12.80
